createdAt,value
2018-09-24T00:00:43.282Z,99.99
2018-09-24T00:01:43.273Z,99.99
2018-09-24T00:02:43.796Z,99.99
2018-09-24T00:03:43.260Z,99.99
2018-09-24T00:04:43.244Z,99.99
2018-09-24T00:05:43.227Z,99.99
2018-09-24T00:06:43.252Z,99.99
2018-09-24T00:07:43.207Z,99.99
2018-09-24T00:08:43.235Z,99.99
2018-09-24T00:09:43.183Z,99.99
2018-09-24T00:10:43.169Z,99.99
2018-09-24T00:11:43.174Z,99.99
2018-09-24T00:12:43.145Z,99.99
2018-09-24T00:13:43.161Z,99.99
2018-09-24T00:14:43.127Z,99.99
2018-09-24T00:15:43.120Z,99.99
2018-09-24T00:16:43.110Z,99.99
2018-09-24T00:17:43.094Z,99.99
2018-09-24T00:18:43.085Z,99.99
2018-09-24T00:19:43.093Z,99.99
2018-09-24T00:20:43.066Z,99.99
2018-09-24T00:21:43.057Z,99.99
2018-09-24T00:22:43.059Z,99.99
2018-09-24T00:23:43.031Z,99.99
2018-09-24T00:24:43.026Z,99.99
2018-09-24T00:25:43.007Z,99.99
2018-09-24T00:26:42.999Z,99.99
2018-09-24T00:27:44.154Z,99.99
2018-09-24T00:28:43.038Z,99.99
2018-09-24T00:29:42.966Z,99.99
2018-09-24T00:30:43.164Z,99.99
2018-09-24T00:31:42.941Z,99.99
2018-09-24T00:32:42.936Z,99.99
2018-09-24T00:33:42.941Z,99.99
2018-09-24T00:34:42.909Z,99.99
2018-09-24T00:35:42.897Z,99.99
2018-09-24T00:36:42.886Z,99.99
2018-09-24T00:37:42.897Z,99.99
2018-09-24T00:38:42.887Z,99.99
2018-09-24T00:39:42.863Z,99.99
2018-09-24T00:40:42.850Z,99.99
2018-09-24T00:41:42.909Z,99.99
2018-09-24T00:42:42.823Z,99.99
2018-09-24T00:43:42.811Z,99.99
2018-09-24T00:44:42.804Z,99.99
2018-09-24T00:45:42.791Z,99.99
2018-09-24T00:46:42.784Z,99.99
2018-09-24T00:47:42.791Z,99.99
2018-09-24T00:48:42.800Z,99.99
2018-09-24T00:49:42.747Z,99.99
2018-09-24T00:50:42.739Z,99.99
2018-09-24T00:51:42.731Z,99.99
2018-09-24T00:52:42.728Z,99.99
2018-09-24T00:53:42.725Z,99.99
2018-09-24T00:54:42.693Z,99.99
2018-09-24T00:55:42.759Z,99.99
2018-09-24T00:56:42.673Z,99.99
2018-09-24T00:57:42.664Z,99.99
2018-09-24T00:58:42.673Z,99.99
2018-09-24T00:59:42.653Z,99.99
2018-09-24T01:00:42.636Z,99.99
2018-09-24T01:01:42.621Z,99.99
2018-09-24T01:02:42.646Z,99.99
2018-09-24T01:03:42.595Z,99.99
2018-09-24T01:04:42.591Z,99.99
2018-09-24T01:05:42.587Z,99.99
2018-09-24T01:06:42.587Z,99.99
2018-09-24T01:07:42.551Z,99.99
2018-09-24T01:08:42.555Z,99.99
2018-09-24T01:09:42.557Z,99.99
2018-09-24T01:10:42.531Z,99.99
2018-09-24T01:11:42.518Z,99.99
2018-09-24T01:12:42.502Z,99.99
2018-09-24T01:13:42.520Z,99.99
2018-09-24T01:14:42.477Z,99.99
2018-09-24T01:15:42.467Z,99.99
2018-09-24T01:16:42.457Z,99.99
2018-09-24T01:17:42.447Z,99.99
2018-09-24T01:18:42.440Z,99.99
2018-09-24T01:19:42.452Z,99.99
2018-09-24T01:20:42.414Z,99.99
2018-09-24T01:21:42.402Z,99.99
2018-09-24T01:22:42.398Z,99.99
2018-09-24T01:23:42.383Z,99.99
2018-09-24T01:24:42.377Z,99.99
2018-09-24T01:25:42.384Z,99.99
2018-09-24T01:26:42.347Z,99.99
2018-09-24T01:27:42.341Z,99.99
2018-09-24T01:28:42.347Z,99.99
2018-09-24T01:29:42.323Z,99.99
2018-09-24T01:30:43.255Z,99.99
2018-09-24T01:31:42.348Z,99.99
2018-09-24T01:32:42.291Z,99.99
2018-09-24T01:33:42.276Z,99.99
2018-09-24T01:34:42.262Z,99.99
2018-09-24T01:35:42.252Z,99.99
2018-09-24T01:36:42.270Z,99.99
2018-09-24T01:37:42.232Z,99.99
2018-09-24T01:38:42.224Z,99.99
2018-09-24T01:39:42.206Z,99.99
2018-09-24T01:40:42.329Z,99.99
2018-09-24T01:41:42.186Z,99.99
2018-09-24T01:42:42.197Z,99.99
2018-09-24T01:43:42.189Z,99.99
2018-09-24T01:44:42.163Z,99.99
2018-09-24T01:45:42.147Z,99.99
2018-09-24T01:46:42.133Z,99.99
2018-09-24T01:47:42.142Z,99.99
2018-09-24T01:48:42.135Z,99.99
2018-09-24T01:49:42.102Z,99.99
2018-09-24T01:50:42.119Z,99.99
2018-09-24T01:51:42.085Z,99.99
2018-09-24T01:52:42.074Z,99.99
2018-09-24T01:53:42.059Z,99.99
2018-09-24T01:54:42.088Z,99.99
2018-09-24T01:55:42.055Z,99.99
2018-09-24T01:56:42.032Z,99.99
2018-09-24T01:57:42.031Z,99.99
2018-09-24T01:58:42.032Z,99.99
2018-09-24T01:59:41.993Z,99.99
2018-09-24T02:00:41.994Z,99.99
2018-09-24T02:01:41.973Z,99.99
2018-09-24T02:02:41.965Z,99.99
2018-09-24T02:03:41.956Z,99.99
2018-09-24T02:04:41.994Z,99.99
2018-09-24T02:05:42.056Z,99.99
2018-09-24T02:06:41.920Z,99.99
2018-09-24T02:07:41.914Z,99.99
2018-09-24T02:08:41.901Z,99.99
2018-09-24T02:09:41.891Z,99.99
2018-09-24T02:10:41.896Z,99.99
2018-09-24T02:11:41.864Z,99.99
2018-09-24T02:12:41.860Z,99.99
2018-09-24T02:13:41.872Z,99.99
2018-09-24T02:14:41.835Z,99.99
2018-09-24T02:15:41.826Z,99.99
2018-09-24T02:16:41.819Z,99.99
2018-09-24T02:17:41.803Z,99.99
2018-09-24T02:18:41.794Z,99.99
2018-09-24T02:19:41.802Z,99.99
2018-09-24T02:20:41.766Z,99.99
2018-09-24T02:21:41.758Z,99.99
2018-09-24T02:22:41.752Z,99.99
2018-09-24T02:23:41.741Z,99.99
2018-09-24T02:24:41.727Z,99.99
2018-09-24T02:25:41.768Z,99.99
2018-09-24T02:26:41.765Z,99.99
2018-09-24T02:27:41.697Z,99.99
2018-09-24T02:28:41.688Z,99.99
2018-09-24T02:29:41.836Z,99.99
2018-09-24T02:30:41.670Z,99.99
2018-09-24T02:31:41.682Z,99.99
2018-09-24T02:32:41.637Z,99.99
2018-09-24T02:33:41.659Z,99.99
2018-09-24T02:34:41.620Z,99.99
2018-09-24T02:35:41.611Z,99.99
2018-09-24T02:36:41.645Z,99.99
2018-09-24T02:37:41.588Z,99.99
2018-09-24T02:38:41.594Z,99.99
2018-09-24T02:39:41.562Z,99.99
2018-09-24T02:40:41.559Z,99.99
2018-09-24T02:41:41.549Z,99.99
2018-09-24T02:42:41.536Z,99.99
2018-09-24T02:43:41.557Z,99.99
2018-09-24T02:44:41.508Z,99.99
2018-09-24T02:45:41.509Z,99.99
2018-09-24T02:46:41.492Z,99.99
2018-09-24T02:47:41.493Z,99.99
2018-09-24T02:48:41.490Z,99.99
2018-09-24T02:49:41.481Z,99.99
2018-09-24T02:50:41.446Z,99.99
2018-09-24T02:51:41.432Z,99.99
2018-09-24T02:52:41.421Z,99.99
2018-09-24T02:53:41.413Z,99.99
2018-09-24T02:54:41.445Z,99.99
2018-09-24T02:55:41.420Z,99.99
2018-09-24T02:56:41.380Z,99.99
2018-09-24T02:57:41.369Z,99.99
2018-09-24T02:58:41.366Z,99.99
2018-09-24T02:59:41.356Z,99.99
2018-09-24T03:00:41.341Z,99.99
2018-09-24T03:01:41.364Z,99.99
2018-09-24T03:02:41.317Z,99.99
2018-09-24T03:03:41.303Z,99.99
2018-09-24T03:04:41.293Z,99.99
2018-09-24T03:05:41.284Z,99.99
2018-09-24T03:06:41.276Z,99.99
2018-09-24T03:07:41.287Z,99.99
2018-09-24T03:08:41.257Z,99.99
2018-09-24T03:09:41.261Z,99.99
2018-09-24T03:10:41.236Z,99.99
2018-09-24T03:11:41.264Z,99.99
2018-09-24T03:12:41.240Z,99.99
2018-09-24T03:13:41.198Z,99.99
2018-09-24T03:14:41.186Z,99.99
2018-09-24T03:15:41.174Z,99.99
2018-09-24T03:16:41.165Z,99.99
2018-09-24T03:17:41.156Z,99.99
2018-09-24T03:18:41.173Z,99.99
2018-09-24T03:19:41.145Z,99.99
2018-09-24T03:20:41.133Z,99.99
2018-09-24T03:21:41.114Z,99.99
2018-09-24T03:22:41.103Z,99.99
2018-09-24T03:23:41.091Z,99.99
2018-09-24T03:24:41.094Z,99.99
2018-09-24T03:25:41.096Z,99.99
2018-09-24T03:26:41.060Z,99.99
2018-09-24T03:27:41.052Z,99.99
2018-09-24T03:28:41.037Z,99.99
2018-09-24T03:29:41.056Z,99.99
2018-09-24T03:30:41.017Z,99.99
2018-09-24T03:31:41.030Z,99.99
2018-09-24T03:32:40.999Z,99.99
2018-09-24T03:33:40.985Z,99.99
2018-09-24T03:34:40.975Z,99.99
2018-09-24T03:35:40.983Z,99.99
2018-09-24T03:36:40.950Z,99.99
2018-09-24T03:37:40.939Z,99.99
2018-09-24T03:38:40.931Z,99.99
2018-09-24T03:39:40.923Z,99.99
2018-09-24T03:40:40.912Z,99.99
2018-09-24T03:41:40.968Z,99.99
2018-09-24T03:42:40.893Z,99.99
2018-09-24T03:43:41.150Z,99.99
2018-09-24T03:44:40.868Z,99.99
2018-09-24T03:45:40.857Z,99.99
2018-09-24T03:46:40.842Z,99.99
2018-09-24T03:47:40.830Z,99.99
2018-09-24T03:48:40.821Z,99.99
2018-09-24T03:49:40.839Z,99.99
2018-09-24T03:50:40.802Z,99.99
2018-09-24T03:51:40.795Z,99.99
2018-09-24T03:52:40.789Z,99.99
2018-09-24T03:53:40.795Z,99.99
2018-09-24T03:54:40.757Z,99.99
2018-09-24T03:55:40.759Z,99.99
2018-09-24T03:56:40.734Z,99.99
2018-09-24T03:57:40.744Z,99.99
2018-09-24T03:58:40.870Z,99.99
2018-09-24T03:59:40.732Z,99.99
2018-09-24T04:00:40.692Z,99.99
2018-09-24T04:01:40.682Z,99.99
2018-09-24T04:02:40.674Z,99.99
2018-09-24T04:03:40.666Z,99.99
2018-09-24T04:04:40.700Z,99.99
2018-09-24T04:05:40.642Z,99.99
2018-09-24T04:06:40.647Z,99.99
2018-09-24T04:07:40.615Z,99.99
2018-09-24T04:08:40.607Z,99.99
2018-09-24T04:09:40.695Z,99.99
2018-09-24T04:10:40.653Z,99.99
2018-09-24T04:11:40.581Z,99.99
2018-09-24T04:12:40.572Z,99.99
2018-09-24T04:13:40.556Z,99.99
2018-09-24T04:14:40.561Z,99.99
2018-09-24T04:15:40.548Z,99.99
2018-09-24T04:16:40.528Z,99.99
2018-09-24T04:17:40.517Z,99.99
2018-09-24T04:18:40.502Z,99.99
2018-09-24T04:19:40.558Z,99.99
2018-09-24T04:20:40.476Z,99.99
2018-09-24T04:21:40.477Z,99.99
2018-09-24T04:22:40.461Z,99.99
2018-09-24T04:23:40.451Z,99.99
2018-09-24T04:24:40.459Z,99.99
2018-09-24T04:25:40.427Z,99.99
2018-09-24T04:26:40.414Z,99.99
2018-09-24T04:27:40.408Z,99.99
2018-09-24T04:28:40.408Z,99.99
2018-09-24T04:29:40.403Z,99.99
2018-09-24T04:30:40.374Z,99.99
2018-09-24T04:31:40.367Z,99.99
2018-09-24T04:32:40.354Z,99.99
2018-09-24T04:33:40.340Z,99.99
2018-09-24T04:34:40.405Z,99.99
2018-09-24T04:35:40.374Z,99.99
2018-09-24T04:36:40.333Z,99.99
2018-09-24T04:37:40.299Z,99.99
2018-09-24T04:38:40.309Z,99.99
2018-09-24T04:39:40.304Z,99.99
2018-09-24T04:40:40.263Z,99.99
2018-09-24T04:41:40.254Z,99.99
2018-09-24T04:42:40.247Z,99.99
2018-09-24T04:43:40.256Z,99.99
2018-09-24T04:44:40.257Z,99.99
2018-09-24T04:45:40.253Z,99.99
2018-09-24T04:46:40.202Z,99.99
2018-09-24T04:47:40.311Z,99.99
2018-09-24T04:48:40.211Z,99.99
2018-09-24T04:49:40.190Z,99.99
2018-09-24T04:50:40.160Z,99.99
2018-09-24T04:51:40.149Z,99.99
2018-09-24T04:52:40.136Z,99.99
2018-09-24T04:53:40.131Z,99.99
2018-09-24T04:54:40.138Z,99.99
2018-09-24T04:55:40.113Z,99.99
2018-09-24T04:56:40.124Z,99.99
2018-09-24T04:57:40.089Z,99.99
2018-09-24T04:58:40.128Z,99.99
2018-09-24T04:59:40.066Z,99.99
2018-09-24T05:00:40.053Z,99.99
2018-09-24T05:01:40.059Z,99.99
2018-09-24T05:02:40.034Z,99.99
2018-09-24T05:03:40.035Z,99.99
2018-09-24T05:04:40.027Z,99.99
2018-09-24T05:05:40.017Z,99.99
2018-09-24T05:06:40.011Z,99.99
2018-09-24T05:07:39.987Z,99.99
2018-09-24T05:08:39.974Z,99.99
2018-09-24T05:09:39.963Z,99.99
2018-09-24T05:10:39.960Z,99.99
2018-09-24T05:11:39.971Z,99.99
2018-09-24T05:12:40.231Z,99.99
2018-09-24T05:13:39.914Z,99.99
2018-09-24T05:14:39.916Z,99.99
2018-09-24T05:15:39.901Z,99.99
2018-09-24T05:16:39.963Z,99.99
2018-09-24T05:17:39.874Z,99.99
2018-09-24T05:18:39.862Z,99.99
2018-09-24T05:19:39.850Z,99.99
2018-09-24T05:20:39.844Z,99.99
2018-09-24T05:21:39.851Z,99.99
2018-09-24T05:22:39.825Z,99.99
2018-09-24T05:23:39.872Z,99.99
2018-09-24T05:24:39.811Z,99.99
2018-09-24T05:25:39.825Z,99.99
2018-09-24T05:26:39.831Z,99.99
2018-09-24T05:27:39.785Z,99.99
2018-09-24T05:28:39.817Z,99.99
2018-09-24T05:29:39.787Z,99.99
2018-09-24T05:30:39.747Z,99.99
2018-09-24T05:31:39.750Z,99.99
2018-09-24T05:32:39.714Z,99.99
2018-09-24T05:33:39.750Z,99.99
2018-09-24T05:34:39.713Z,99.99
2018-09-24T05:35:39.679Z,99.99
2018-09-24T05:36:39.695Z,99.99
2018-09-24T05:37:39.676Z,99.99
2018-09-24T05:38:39.645Z,99.99
2018-09-24T05:39:39.643Z,99.99
2018-09-24T05:40:39.630Z,99.99
2018-09-24T05:41:39.615Z,99.99
2018-09-24T05:42:39.630Z,99.99
2018-09-24T05:43:39.597Z,99.99
2018-09-24T05:44:39.592Z,99.99
2018-09-24T05:45:39.609Z,99.99
2018-09-24T05:46:39.560Z,99.99
2018-09-24T05:47:39.575Z,99.99
2018-09-24T05:48:39.634Z,99.99
2018-09-24T05:49:39.531Z,99.99
2018-09-24T05:50:39.526Z,99.99
2018-09-24T05:51:39.543Z,99.99
2018-09-24T05:52:39.523Z,99.99
2018-09-24T05:53:39.490Z,99.99
2018-09-24T05:54:39.483Z,99.99
2018-09-24T05:55:39.472Z,99.99
2018-09-24T05:56:39.460Z,99.99
2018-09-24T05:57:39.474Z,99.99
2018-09-24T05:58:39.474Z,99.99
2018-09-24T05:59:39.447Z,99.99
2018-09-24T06:00:39.417Z,99.99
2018-09-24T06:01:39.405Z,99.99
2018-09-24T06:02:39.654Z,99.99
2018-09-24T06:03:39.386Z,99.99
2018-09-24T06:04:39.427Z,99.99
2018-09-24T06:05:39.364Z,99.99
2018-09-24T06:06:39.357Z,99.99
2018-09-24T06:07:39.368Z,99.99
2018-09-24T06:08:39.330Z,99.99
2018-09-24T06:09:39.326Z,99.99
2018-09-24T06:10:39.304Z,99.99
2018-09-24T06:11:39.301Z,99.99
2018-09-24T06:12:39.325Z,99.99
2018-09-24T06:13:39.553Z,99.99
2018-09-24T06:14:39.279Z,99.99
2018-09-24T06:15:39.266Z,99.99
2018-09-24T06:16:39.243Z,99.99
2018-09-24T06:17:39.235Z,99.99
2018-09-24T06:18:39.223Z,99.99
2018-09-24T06:19:39.226Z,99.99
2018-09-24T06:20:39.204Z,99.99
2018-09-24T06:21:39.186Z,99.99
2018-09-24T06:22:39.188Z,99.99
2018-09-24T06:23:39.188Z,99.99
2018-09-24T06:24:39.175Z,99.99
2018-09-24T06:25:39.142Z,99.99
2018-09-24T06:26:39.143Z,99.99
2018-09-24T06:27:39.150Z,99.99
2018-09-24T06:28:39.115Z,99.99
2018-09-24T06:29:39.123Z,99.99
2018-09-24T06:30:39.105Z,99.99
2018-09-24T06:31:39.085Z,99.99
2018-09-24T06:32:39.070Z,99.99
2018-09-24T06:33:39.075Z,99.99
2018-09-24T06:34:39.082Z,99.99
2018-09-24T06:35:39.044Z,99.99
2018-09-24T06:36:39.073Z,99.99
2018-09-24T06:37:39.023Z,99.99
2018-09-24T06:38:39.002Z,99.99
2018-09-24T06:39:38.995Z,99.99
2018-09-24T06:40:39.017Z,99.99
2018-09-24T06:41:38.981Z,99.99
2018-09-24T06:42:38.960Z,99.99
2018-09-24T06:43:38.953Z,99.99
2018-09-24T06:44:38.957Z,99.99
2018-09-24T06:45:38.940Z,99.99
2018-09-24T06:46:38.922Z,99.99
2018-09-24T06:47:38.912Z,99.99
2018-09-24T06:48:38.903Z,99.99
2018-09-24T06:49:38.976Z,99.99
2018-09-24T06:50:38.875Z,99.99
2018-09-24T06:51:38.864Z,99.99
2018-09-24T06:52:38.854Z,99.99
2018-09-24T06:53:38.848Z,99.99
2018-09-24T06:54:38.855Z,99.99
2018-09-24T06:55:38.831Z,99.99
2018-09-24T06:56:38.812Z,99.99
2018-09-24T06:57:38.800Z,99.99
2018-09-24T06:58:38.794Z,99.99
2018-09-24T06:59:38.865Z,99.99
2018-09-24T07:00:38.769Z,99.99
2018-09-24T07:01:38.761Z,99.99
2018-09-24T07:02:38.751Z,99.65
2018-09-24T07:03:38.767Z,99.99
2018-09-24T07:04:38.766Z,99.99
2018-09-24T07:05:38.754Z,99.96
2018-09-24T07:06:38.715Z,99.99
2018-09-24T07:07:38.697Z,99.55
2018-09-24T07:08:38.703Z,99.76
2018-09-24T07:09:38.714Z,99.99
2018-09-24T07:10:38.659Z,99.99
2018-09-24T07:11:38.649Z,99.91
2018-09-24T07:12:38.641Z,99.81
2018-09-24T07:13:38.636Z,99.91
2018-09-24T07:14:38.639Z,99.19
2018-09-24T07:15:38.606Z,99.40
2018-09-24T07:16:38.596Z,98.99
2018-09-24T07:17:38.583Z,98.33
2018-09-24T07:18:38.582Z,98.74
2018-09-24T07:19:38.567Z,98.63
2018-09-24T07:20:38.574Z,99.46
2018-09-24T07:21:38.546Z,98.33
2018-09-24T07:22:38.534Z,98.12
2018-09-24T07:23:38.532Z,98.74
2018-09-24T07:24:38.509Z,98.12
2018-09-24T07:25:38.545Z,98.74
2018-09-24T07:26:38.496Z,98.74
2018-09-24T07:27:38.525Z,98.53
2018-09-24T07:28:38.467Z,98.12
2018-09-24T07:29:38.453Z,98.49
2018-09-24T07:30:38.493Z,97.77
2018-09-24T07:31:38.436Z,97.45
2018-09-24T07:32:38.445Z,96.84
2018-09-24T07:33:38.451Z,96.94
2018-09-24T07:34:38.400Z,97.56
2018-09-24T07:35:38.415Z,97.66
2018-09-24T07:36:38.383Z,97.41
2018-09-24T07:37:38.384Z,97.10
2018-09-24T07:38:38.367Z,96.59
2018-09-24T07:39:38.371Z,97.00
2018-09-24T07:40:38.357Z,97.00
2018-09-24T07:41:38.338Z,97.27
2018-09-24T07:42:38.315Z,96.39
2018-09-24T07:43:38.308Z,97.57
2018-09-24T07:44:38.315Z,96.95
2018-09-24T07:45:38.298Z,96.55
2018-09-24T07:46:38.301Z,96.44
2018-09-24T07:47:38.262Z,96.85
2018-09-24T07:48:38.272Z,96.55
2018-09-24T07:49:38.258Z,96.44
2018-09-24T07:50:38.247Z,97.02
2018-09-24T07:51:38.285Z,96.34
2018-09-24T07:52:38.275Z,95.98
2018-09-24T07:53:38.237Z,96.60
2018-09-24T07:54:38.183Z,96.35
2018-09-24T07:55:38.241Z,98.30
2018-09-24T07:56:38.183Z,94.45
2018-09-24T07:57:38.156Z,96.04
2018-09-24T07:58:38.149Z,95.32
2018-09-24T07:59:38.133Z,95.43
2018-09-24T08:00:38.125Z,94.40
2018-09-24T08:01:38.136Z,94.10
2018-09-24T08:02:38.131Z,96.77
2018-09-24T08:03:38.090Z,95.59
2018-09-24T08:04:38.080Z,95.53
2018-09-24T08:05:38.075Z,95.53
2018-09-24T08:06:38.054Z,94.92
2018-09-24T08:07:38.122Z,94.30
2018-09-24T08:08:38.036Z,94.15
2018-09-24T08:09:38.024Z,94.05
2018-09-24T08:10:38.017Z,92.72
2018-09-24T08:11:38.011Z,93.85
2018-09-24T08:12:38.037Z,93.70
2018-09-24T08:13:37.984Z,92.82
2018-09-24T08:14:37.989Z,94.26
2018-09-24T08:15:37.958Z,93.29
2018-09-24T08:16:37.968Z,92.47
2018-09-24T08:17:37.992Z,94.32
2018-09-24T08:18:37.946Z,92.53
2018-09-24T08:19:37.943Z,90.58
2018-09-24T08:20:37.907Z,91.71
2018-09-24T08:21:37.910Z,93.15
2018-09-24T08:22:37.896Z,92.83
2018-09-24T08:23:37.882Z,91.82
2018-09-24T08:24:37.868Z,91.82
2018-09-24T08:25:37.872Z,91.50
2018-09-24T08:26:37.838Z,92.43
2018-09-24T08:27:37.829Z,90.48
2018-09-24T08:28:37.819Z,91.67
2018-09-24T08:29:37.810Z,91.05
2018-09-24T08:30:37.825Z,92.08
2018-09-24T08:31:37.788Z,89.83
2018-09-24T08:32:37.777Z,90.54
2018-09-24T08:33:37.775Z,91.61
2018-09-24T08:34:37.758Z,91.36
2018-09-24T08:35:37.772Z,90.99
2018-09-24T08:36:37.768Z,91.61
2018-09-24T08:37:37.738Z,92.69
2018-09-24T08:38:37.738Z,91.46
2018-09-24T08:39:37.699Z,93.62
2018-09-24T08:40:37.688Z,91.50
2018-09-24T08:41:37.676Z,91.56
2018-09-24T08:42:37.689Z,91.56
2018-09-24T08:43:37.664Z,91.56
2018-09-24T08:44:37.648Z,92.85
2018-09-24T08:45:37.638Z,90.70
2018-09-24T08:46:37.623Z,92.34
2018-09-24T08:47:37.640Z,91.01
2018-09-24T08:48:37.606Z,89.94
2018-09-24T08:49:37.603Z,90.25
2018-09-24T08:50:37.581Z,91.07
2018-09-24T08:51:37.571Z,92.60
2018-09-24T08:52:37.563Z,91.17
2018-09-24T08:53:37.565Z,88.47
2018-09-24T08:54:37.567Z,90.52
2018-09-24T08:55:37.529Z,86.94
2018-09-24T08:56:37.580Z,88.06
2018-09-24T08:57:37.510Z,91.19
2018-09-24T08:58:37.491Z,87.92
2018-09-24T08:59:37.507Z,87.61
2018-09-24T09:00:37.485Z,84.44
2018-09-24T09:01:37.459Z,85.97
2018-09-24T09:02:37.531Z,84.55
2018-09-24T09:03:37.446Z,85.57
2018-09-24T09:04:37.457Z,84.50
2018-09-24T09:05:37.434Z,84.50
2018-09-24T09:06:37.413Z,87.47
2018-09-24T09:07:37.419Z,84.75
2018-09-24T09:08:37.389Z,84.65
2018-09-24T09:09:37.380Z,85.67
2018-09-24T09:10:37.390Z,84.20
2018-09-24T09:11:37.381Z,83.48
2018-09-24T09:12:37.343Z,85.63
2018-09-24T09:13:37.329Z,84.47
2018-09-24T09:14:37.326Z,83.65
2018-09-24T09:15:37.325Z,83.24
2018-09-24T09:16:37.353Z,81.37
2018-09-24T09:17:37.295Z,82.45
2018-09-24T09:18:37.276Z,81.53
2018-09-24T09:19:37.277Z,85.57
2018-09-24T09:20:37.258Z,81.29
2018-09-24T09:21:37.270Z,85.13
2018-09-24T09:22:37.257Z,82.78
2018-09-24T09:23:37.239Z,84.37
2018-09-24T09:24:37.245Z,82.47
2018-09-24T09:25:37.213Z,79.72
2018-09-24T09:26:37.217Z,77.98
2018-09-24T09:27:37.182Z,83.70
2018-09-24T09:28:37.177Z,83.70
2018-09-24T09:29:37.164Z,80.71
2018-09-24T09:30:37.171Z,80.55
2018-09-24T09:31:37.135Z,84.33
2018-09-24T09:32:37.125Z,82.89
2018-09-24T09:33:37.114Z,83.44
2018-09-24T09:34:37.133Z,80.89
2018-09-24T09:35:37.133Z,80.69
2018-09-24T09:36:37.091Z,80.01
2018-09-24T09:37:37.068Z,80.32
2018-09-24T09:38:37.064Z,80.83
2018-09-24T09:39:37.057Z,81.03
2018-09-24T09:40:37.060Z,79.91
2018-09-24T09:41:37.032Z,80.93
2018-09-24T09:42:37.020Z,81.51
2018-09-24T09:43:37.005Z,80.99
2018-09-24T09:44:36.991Z,82.56
2018-09-24T09:45:37.010Z,84.06
2018-09-24T09:46:37.005Z,85.04
2018-09-24T09:47:36.970Z,83.00
2018-09-24T09:48:36.972Z,78.67
2018-09-24T09:49:36.942Z,83.33
2018-09-24T09:50:36.957Z,80.78
2018-09-24T09:51:36.952Z,79.86
2018-09-24T09:52:36.937Z,83.23
2018-09-24T09:53:36.963Z,83.73
2018-09-24T09:54:36.886Z,82.98
2018-09-24T09:55:36.954Z,78.50
2018-09-24T09:56:36.888Z,75.81
2018-09-24T09:57:36.873Z,83.21
2018-09-24T09:58:36.846Z,77.71
2018-09-24T09:59:36.835Z,76.18
2018-09-24T10:00:36.824Z,74.38
2018-09-24T10:01:36.828Z,74.38
2018-09-24T10:02:36.845Z,77.89
2018-09-24T10:03:36.784Z,77.85
2018-09-24T10:04:36.837Z,75.71
2018-09-24T10:05:36.764Z,74.08
2018-09-24T10:06:36.774Z,75.98
2018-09-24T10:07:36.765Z,74.21
2018-09-24T10:08:36.735Z,75.95
2018-09-24T10:09:36.730Z,75.16
2018-09-24T10:10:36.734Z,73.33
2018-09-24T10:11:36.909Z,77.85
2018-09-24T10:12:37.008Z,76.66
2018-09-24T10:13:36.708Z,77.48
2018-09-24T10:14:36.707Z,76.09
2018-09-24T10:15:36.673Z,78.02
2018-09-24T10:16:36.675Z,79.75
2018-09-24T10:17:36.644Z,76.53
2018-09-24T10:18:36.638Z,77.48
2018-09-24T10:19:36.622Z,74.38
2018-09-24T10:20:36.626Z,76.70
2018-09-24T10:21:36.626Z,77.00
2018-09-24T10:22:36.589Z,78.64
2018-09-24T10:23:36.567Z,76.43
2018-09-24T10:24:36.563Z,79.02
2018-09-24T10:25:36.560Z,76.02
2018-09-24T10:26:36.537Z,74.15
2018-09-24T10:27:36.595Z,72.82
2018-09-24T10:28:36.516Z,73.16
2018-09-24T10:29:36.505Z,74.45
2018-09-24T10:30:38.044Z,70.48
2018-09-24T10:31:36.489Z,70.34
2018-09-24T10:32:36.497Z,70.04
2018-09-24T10:33:36.473Z,71.06
2018-09-24T10:34:36.451Z,68.82
2018-09-24T10:35:36.466Z,71.67
2018-09-24T10:36:36.435Z,72.58
2018-09-24T10:37:36.472Z,72.25
2018-09-24T10:38:36.425Z,69.09
2018-09-24T10:39:36.426Z,75.46
2018-09-24T10:40:36.383Z,72.78
2018-09-24T10:41:36.391Z,75.80
2018-09-24T10:42:36.384Z,69.74
2018-09-24T10:43:36.360Z,72.69
2018-09-24T10:44:36.349Z,68.82
2018-09-24T10:45:36.335Z,70.65
2018-09-24T10:46:36.326Z,67.71
2018-09-24T10:47:36.326Z,66.38
2018-09-24T10:48:36.315Z,72.99
2018-09-24T10:49:36.292Z,72.14
2018-09-24T10:50:36.299Z,72.17
2018-09-24T10:51:36.278Z,69.30
2018-09-24T10:52:36.261Z,67.80
2018-09-24T10:53:36.267Z,71.60
2018-09-24T10:54:36.240Z,67.74
2018-09-24T10:55:36.223Z,71.80
2018-09-24T10:56:36.224Z,68.99
2018-09-24T10:57:36.206Z,66.88
2018-09-24T10:58:36.220Z,65.08
2018-09-24T10:59:36.207Z,69.26
2018-09-24T11:00:36.194Z,70.92
2018-09-24T11:01:36.169Z,68.40
2018-09-24T11:02:36.151Z,72.28
2018-09-24T11:03:36.159Z,70.04
2018-09-24T11:04:36.131Z,69.63
2018-09-24T11:05:36.118Z,69.15
2018-09-24T11:06:36.107Z,69.76
2018-09-24T11:07:36.101Z,70.07
2018-09-24T11:08:36.110Z,69.56
2018-09-24T11:09:36.076Z,69.76
2018-09-24T11:10:36.064Z,72.00
2018-09-24T11:11:36.059Z,71.19
2018-09-24T11:12:36.043Z,69.59
2018-09-24T11:13:36.051Z,71.77
2018-09-24T11:14:36.022Z,68.75
2018-09-24T11:15:36.075Z,68.59
2018-09-24T11:16:36.208Z,67.24
2018-09-24T11:17:36.209Z,64.15
2018-09-24T11:18:35.995Z,64.18
2018-09-24T11:19:35.962Z,63.20
2018-09-24T11:20:35.974Z,66.35
2018-09-24T11:21:35.975Z,64.22
2018-09-24T11:22:35.945Z,65.13
2018-09-24T11:23:35.946Z,64.52
2018-09-24T11:24:35.936Z,65.13
2018-09-24T11:25:35.925Z,63.10
2018-09-24T11:26:35.915Z,63.43
2018-09-24T11:27:35.877Z,64.69
2018-09-24T11:28:35.918Z,66.72
2018-09-24T11:29:35.915Z,66.28
2018-09-24T11:30:35.842Z,67.61
2018-09-24T11:31:35.833Z,63.52
2018-09-24T11:32:35.831Z,63.46
2018-09-24T11:33:35.813Z,60.26
2018-09-24T11:34:35.826Z,60.53
2018-09-24T11:35:35.803Z,59.70
2018-09-24T11:36:35.784Z,58.00
2018-09-24T11:37:35.853Z,59.20
2018-09-24T11:38:35.756Z,60.14
2018-09-24T11:39:35.776Z,63.55
2018-09-24T11:40:35.741Z,63.58
2018-09-24T11:41:35.742Z,63.71
2018-09-24T11:42:35.759Z,66.08
2018-09-24T11:43:35.723Z,66.58
2018-09-24T11:44:35.721Z,65.39
2018-09-24T11:45:35.707Z,64.58
2018-09-24T11:46:35.697Z,64.81
2018-09-24T11:47:35.666Z,68.27
2018-09-24T11:48:35.653Z,64.65
2018-09-24T11:49:35.650Z,64.58
2018-09-24T11:50:35.645Z,68.14
2018-09-24T11:51:35.614Z,67.36
2018-09-24T11:52:35.602Z,66.78
2018-09-24T11:53:35.597Z,66.58
2018-09-24T11:54:35.586Z,66.10
2018-09-24T11:55:35.596Z,69.06
2018-09-24T11:56:35.568Z,69.87
2018-09-24T11:57:35.555Z,69.15
2018-09-24T11:58:35.540Z,70.07
2018-09-24T11:59:35.532Z,69.93
2018-09-24T12:00:35.541Z,67.60
2018-09-24T12:01:35.512Z,66.12
2018-09-24T12:02:35.498Z,65.95
2018-09-24T12:03:35.520Z,62.78
2018-09-24T12:04:35.473Z,64.95
2018-09-24T12:05:35.481Z,60.57
2018-09-24T12:06:35.456Z,59.88
2018-09-24T12:07:35.599Z,62.95
2018-09-24T12:08:35.446Z,60.82
2018-09-24T12:09:35.422Z,63.79
2018-09-24T12:10:35.487Z,64.33
2018-09-24T12:11:35.405Z,65.78
2018-09-24T12:12:35.422Z,63.78
2018-09-24T12:13:35.380Z,63.71
2018-09-24T12:14:35.372Z,63.57
2018-09-24T12:15:35.360Z,68.04
2018-09-24T12:16:36.988Z,67.46
2018-09-24T12:17:35.357Z,65.77
2018-09-24T12:18:35.331Z,67.36
2018-09-24T12:19:35.320Z,66.72
2018-09-24T12:20:35.309Z,65.50
2018-09-24T12:21:35.318Z,65.47
2018-09-24T12:22:35.291Z,66.28
2018-09-24T12:23:35.312Z,65.71
2018-09-24T12:24:35.311Z,65.10
2018-09-24T12:25:35.247Z,64.67
2018-09-24T12:26:35.248Z,63.65
2018-09-24T12:27:35.232Z,66.05
2018-09-24T12:28:35.239Z,69.10
2018-09-24T12:29:35.211Z,66.52
2018-09-24T12:30:35.195Z,68.62
2018-09-24T12:31:35.187Z,71.60
2018-09-24T12:32:35.199Z,69.84
2018-09-24T12:33:35.164Z,72.24
2018-09-24T12:34:35.150Z,73.67
2018-09-24T12:35:35.136Z,77.78
2018-09-24T12:36:35.127Z,80.47
2018-09-24T12:37:35.138Z,82.55
2018-09-24T12:38:35.110Z,80.75
2018-09-24T12:39:35.107Z,84.16
2018-09-24T12:40:35.090Z,85.18
2018-09-24T12:41:35.096Z,87.10
2018-09-24T12:42:35.084Z,89.45
2018-09-24T12:43:35.053Z,88.88
2018-09-24T12:44:35.042Z,88.06
2018-09-24T12:45:35.061Z,89.80
2018-09-24T12:46:35.051Z,89.23
2018-09-24T12:47:35.014Z,91.27
2018-09-24T12:48:34.998Z,90.45
2018-09-24T12:49:34.996Z,89.47
2018-09-24T12:50:34.982Z,89.37
2018-09-24T12:51:34.971Z,91.99
2018-09-24T12:52:34.983Z,92.40